Norfolk, VA

2:50 AM EDT on October 23, 2014 (GMT -0400)
Norfolk International | Change Station
CLOSE
Current Station
Airport
Location: Norfolk,
Elevation: 30 ft
Nearby Weather Stations

Elev 30 ft 36.90 °N, 76.19 °W | Updated 59 minutes ago

Overcast
Overcast
55 °F
Feels Like 55 °F
N
9
Wind Variable Wind from NW
Gusts 17 mph

Today
High -- | Low -- °F
--% Chance of Precip.
Yesterday
High -- | Low -- °F
Precip. -- in
7:19 AM 6:17 PM
Waning Crescent, 0% visible
Pressure 29.88 in
Visibility 10.0 miles
Clouds Overcast 3500 ft
Dew Point 44 °F
Humidity 67%
Rainfall 0.00 in
Snow Depth Not available.
UV 0 out of 12
Pollen 1.40 out of 12
Ozone Good
PM2.5 Good
Flu Activity Local Activity
METAR KORF 230551Z AUTO 32008G15KT 10SM OVC035 13/07 A2988 RMK AO2 SLP118 60000 T01280067 10139 20128 56006 TSNO

More Conditions Fewer Conditions

Pressure 29.88 in
Visibility 10.0 miles
Clouds Overcast 3500 ft
Dew Point 44 °F
Humidity 67%
Rainfall 0.00 in
Snow Depth Not available.
UV 0 out of 12
Pollen 1.40 out of 12
Ozone Good
PM2.5 Good
Flu Activity Local Activity
METAR KORF 230551Z AUTO 32008G15KT 10SM OVC035 13/07 A2988 RMK AO2 SLP118 60000 T01280067 10139 20128 56006 TSNO

More Conditions Fewer Conditions

10-Day Weather Forecast

Almanac

Astronomy

Oct. 23, 2014 Rise Set
Actual Time 7:19 AM EDT 6:17 PM EDT
Civil Twilight 6:53 AM EDT 6:44 PM EDT
Nautical Twilight 6:23 AM EDT 7:14 PM EDT
Astronomical Twilight 5:53 AM EDT 7:44 PM EDT
Moon 6:57 AM EDT 6:18 PM EDT
Length of Visible Light 11h 50m
Length of Day
10h 57m
Tomorrow will be 2m 10s shorter.
Waning Crescent, 0% of the Moon is Illuminated
Today
Waning Crescent
Oct 23
New
Oct 30
First Quarter
Nov 6
Full
Nov 14
Last Quarter

Today's Extremes

State Highs State Lows

Community

WunderPhotos

Upload Photos

1,764,194 photos uploaded!

Nearby

Air Quality

  Air Quality AQ Index Pollutant
Yesterday Good
OZONE
Yesterday Good
PM2.5
Current Good
PM2.5
Current Good
OZONE
Thursday Good
PM2.5

Snow Depth

Station Depth Elevation
No new snow has been reported.

Earthquake Activity

City Distance Mag. Time & Date
No recent earthquake activity has been reported nearby.
Minimum magnitude displayed is 2.5.

Coastal Water Temperatures

Place Temperature
Sewells Point, VA 64.9 °F
Chesapeake Bay Bridge Tunnel, VA 66.0 °F
Kiptopeke, VA 64.0 °F
Yorktown, VA 66.0 °F

Nearby Weather Stations